createdAt,value
2019-02-26T00:01:08.747Z,86.10
2019-02-26T00:03:37.797Z,83.10
2019-02-26T00:06:06.174Z,83.10
2019-02-26T00:08:34.460Z,84.80
2019-02-26T00:11:03.756Z,83.10
2019-02-26T00:13:32.321Z,81.50
2019-02-26T00:16:03.142Z,81.50
2019-02-26T00:18:28.584Z,81.60
2019-02-26T00:20:59.040Z,82.30
2019-02-26T00:23:25.673Z,82.30
2019-02-26T00:25:54.267Z,84.00
2019-02-26T00:28:23.318Z,83.30
2019-02-26T00:30:51.706Z,83.30
2019-02-26T00:33:22.299Z,84.20
2019-02-26T00:35:50.179Z,84.90
2019-02-26T00:38:18.177Z,85.50
2019-02-26T00:40:45.209Z,84.70
2019-02-26T00:43:13.483Z,84.50
2019-02-26T00:45:41.782Z,84.60
2019-02-26T00:48:10.067Z,84.40
2019-02-26T00:50:39.821Z,84.80
2019-02-26T00:53:06.791Z,83.70
2019-02-26T00:55:37.340Z,83.20
2019-02-26T00:58:05.919Z,85.90
2019-02-26T01:00:33.214Z,85.90
2019-02-26T01:03:01.415Z,86.90
2019-02-26T01:05:29.304Z,86.70
2019-02-26T01:07:57.567Z,87.20
2019-02-26T01:10:25.869Z,87.80
2019-02-26T01:12:54.147Z,87.60
2019-02-26T01:15:22.458Z,87.80
2019-02-26T01:17:51.483Z,87.10
2019-02-26T01:20:22.646Z,87.10
2019-02-26T01:22:48.046Z,87.10
2019-02-26T01:25:18.469Z,86.90
2019-02-26T01:27:46.014Z,86.00
2019-02-26T01:30:13.074Z,86.40
2019-02-26T01:32:41.450Z,87.90
2019-02-26T01:35:11.230Z,88.90
2019-02-26T01:37:38.002Z,89.20
2019-02-26T01:40:09.448Z,88.80
2019-02-26T01:42:35.676Z,87.40
2019-02-26T01:45:04.866Z,87.20
2019-02-26T01:47:33.148Z,86.60
2019-02-26T01:50:01.431Z,86.20
2019-02-26T01:52:29.718Z,86.50
2019-02-26T01:55:00.129Z,86.10
2019-02-26T01:57:27.731Z,85.60
2019-02-26T01:59:54.614Z,84.20
2019-02-26T02:02:25.237Z,85.40
2019-02-26T02:04:51.903Z,84.50
2019-02-26T02:07:21.327Z,84.50
2019-02-26T02:09:51.294Z,86.50
2019-02-26T02:12:17.651Z,86.40
2019-02-26T02:14:45.935Z,88.40
2019-02-26T02:17:14.230Z,88.10
2019-02-26T02:19:42.479Z,89.30
2019-02-26T02:22:12.192Z,90.50
2019-02-26T02:24:41.558Z,90.50
2019-02-26T02:27:07.544Z,90.50
2019-02-26T02:29:36.619Z,90.10
2019-02-26T02:32:07.464Z,90.10
2019-02-26T02:34:36.585Z,90.00
2019-02-26T02:37:01.566Z,89.50
2019-02-26T02:39:30.816Z,90.40
2019-02-26T02:41:59.103Z,90.30
2019-02-26T02:44:27.400Z,90.80
2019-02-26T02:46:55.684Z,91.00
2019-02-26T02:49:24.843Z,90.80
2019-02-26T02:51:53.171Z,90.80
2019-02-26T02:54:23.643Z,91.00
2019-02-26T02:56:50.493Z,90.70
2019-02-26T02:59:18.790Z,90.70
2019-02-26T03:01:51.334Z,90.70
2019-02-26T03:04:19.647Z,91.10
2019-02-26T03:06:44.625Z,91.10
2019-02-26T03:09:15.226Z,91.10
2019-02-26T03:11:44.001Z,90.90
2019-02-26T03:14:11.011Z,90.70
2019-02-26T03:16:39.952Z,90.90
2019-02-26T03:19:07.753Z,90.80
2019-02-26T03:21:34.575Z,91.20
2019-02-26T03:24:05.641Z,91.20
2019-02-26T03:26:31.327Z,91.30
2019-02-26T03:28:59.660Z,90.90
2019-02-26T03:31:33.799Z,90.30
2019-02-26T03:34:04.619Z,90.20
2019-02-26T03:36:24.658Z,90.80
2019-02-26T03:38:54.758Z,91.50
2019-02-26T03:41:23.501Z,91.90
2019-02-26T03:43:49.563Z,91.70
2019-02-26T03:46:17.838Z,91.40
2019-02-26T03:48:46.144Z,91.10
2019-02-26T03:51:17.871Z,91.00
2019-02-26T03:53:44.137Z,91.00
2019-02-26T03:56:14.890Z,90.70
2019-02-26T03:58:40.269Z,90.10
2019-02-26T04:01:10.937Z,90.50
2019-02-26T04:03:39.641Z,90.20
2019-02-26T04:06:09.199Z,89.60
2019-02-26T04:08:34.499Z,89.80
2019-02-26T04:11:02.855Z,89.20
2019-02-26T04:13:31.143Z,89.30
2019-02-26T04:16:01.546Z,89.60
2019-02-26T04:18:28.614Z,89.00
2019-02-26T04:21:03.210Z,89.00
2019-02-26T04:23:25.255Z,88.60
2019-02-26T04:25:57.622Z,88.20
2019-02-26T04:28:33.000Z,87.00
2019-02-26T04:31:12.214Z,87.00
2019-02-26T04:34:01.797Z,89.30
2019-02-26T04:36:30.553Z,89.90
2019-02-26T04:39:23.508Z,90.30
2019-02-26T04:41:54.270Z,90.20
2019-02-26T04:44:31.210Z,89.60
2019-02-26T04:46:59.578Z,89.60
2019-02-26T04:49:28.138Z,89.40
2019-02-26T04:51:54.303Z,90.20
2019-02-26T04:54:26.321Z,90.70
2019-02-26T04:56:51.092Z,91.10
2019-02-26T04:59:19.259Z,91.50
2019-02-26T05:01:49.901Z,91.60
2019-02-26T05:04:16.645Z,91.60
2019-02-26T05:06:44.917Z,91.40
2019-02-26T05:09:14.071Z,91.40
2019-02-26T05:11:42.461Z,91.40
2019-02-26T05:14:15.022Z,91.60
2019-02-26T05:16:40.596Z,91.60
2019-02-26T05:19:10.663Z,91.70
2019-02-26T05:21:37.959Z,91.90
2019-02-26T05:24:06.293Z,91.20
2019-02-26T05:26:34.576Z,91.20
2019-02-26T05:29:02.931Z,91.30
2019-02-26T05:31:34.570Z,91.50
2019-02-26T05:34:00.079Z,91.20
2019-02-26T05:36:28.395Z,91.70
2019-02-26T05:38:57.581Z,91.90
2019-02-26T05:41:25.238Z,92.80
2019-02-26T05:43:57.829Z,92.80
2019-02-26T05:46:24.570Z,92.90
2019-02-26T05:48:51.178Z,93.00
2019-02-26T05:51:18.539Z,92.70
2019-02-26T05:53:46.836Z,92.30
2019-02-26T05:56:17.271Z,92.40
2019-02-26T05:58:46.358Z,92.30
2019-02-26T06:01:13.792Z,92.30
2019-02-26T06:03:41.059Z,92.20
2019-02-26T06:06:08.401Z,92.20
2019-02-26T06:08:39.277Z,92.60
2019-02-26T06:11:05.081Z,92.60
2019-02-26T06:13:35.574Z,91.90
2019-02-26T06:16:04.803Z,91.90
2019-02-26T06:18:30.727Z,92.20
2019-02-26T06:21:01.220Z,91.80
2019-02-26T06:23:30.660Z,91.80
2019-02-26T06:25:59.033Z,91.60
2019-02-26T06:28:24.831Z,91.30
2019-02-26T06:30:55.020Z,90.90
2019-02-26T06:33:21.473Z,90.40
2019-02-26T06:35:49.745Z,90.20
2019-02-26T06:38:18.018Z,90.20
2019-02-26T06:40:48.873Z,90.50
2019-02-26T06:43:14.679Z,90.70
2019-02-26T06:45:44.976Z,90.50
2019-02-26T06:48:14.694Z,90.50
2019-02-26T06:50:41.578Z,90.20
2019-02-26T06:53:09.125Z,90.20
2019-02-26T06:55:36.892Z,90.30
2019-02-26T06:58:13.126Z,90.40
2019-02-26T07:00:41.956Z,90.70
2019-02-26T07:03:09.703Z,90.90
2019-02-26T07:05:37.978Z,91.00
2019-02-26T07:08:06.661Z,91.20
2019-02-26T07:10:34.727Z,91.50
2019-02-26T07:13:05.050Z,92.30
2019-02-26T07:15:32.192Z,93.20
2019-02-26T07:18:04.431Z,92.90
2019-02-26T07:20:34.162Z,92.60
2019-02-26T07:22:57.112Z,92.50
2019-02-26T07:25:25.489Z,92.10
2019-02-26T07:27:55.849Z,91.70
2019-02-26T07:30:22.038Z,92.20
2019-02-26T07:32:50.303Z,92.80
2019-02-26T07:35:18.551Z,93.10
2019-02-26T07:37:47.579Z,92.90
2019-02-26T07:40:17.063Z,92.90
2019-02-26T07:42:46.754Z,92.70
2019-02-26T07:45:15.264Z,92.50
2019-02-26T07:47:41.398Z,92.10
2019-02-26T07:50:12.299Z,92.10
2019-02-26T07:52:38.039Z,91.20
2019-02-26T07:55:09.179Z,90.90
2019-02-26T07:57:34.582Z,90.80
2019-02-26T08:00:02.894Z,91.20
2019-02-26T08:02:32.533Z,91.10
2019-02-26T08:05:00.263Z,90.60
2019-02-26T08:07:30.395Z,90.50
2019-02-26T08:09:56.903Z,90.00
2019-02-26T08:12:25.227Z,86.90
2019-02-26T08:14:53.466Z,85.10
2019-02-26T08:17:21.718Z,83.60
2019-02-26T08:19:50.016Z,82.70
2019-02-26T08:22:18.392Z,81.10
2019-02-26T08:24:48.598Z,79.10
2019-02-26T08:27:15.764Z,73.50
2019-02-26T08:29:44.044Z,73.40
2019-02-26T08:32:15.864Z,71.80
2019-02-26T08:34:40.675Z,71.60
2019-02-26T08:37:09.055Z,71.10
2019-02-26T08:39:38.022Z,73.00
2019-02-26T08:42:07.251Z,72.20
2019-02-26T08:44:35.582Z,72.40
2019-02-26T08:47:08.745Z,74.20
2019-02-26T08:49:32.166Z,76.80
2019-02-26T08:52:00.459Z,79.20
2019-02-26T08:54:30.685Z,79.20
2019-02-26T08:56:57.139Z,81.60
2019-02-26T08:59:25.387Z,80.30
2019-02-26T09:01:53.764Z,78.50
2019-02-26T09:04:23.783Z,76.70
2019-02-26T09:06:52.312Z,73.40
2019-02-26T09:09:20.514Z,67.20
2019-02-26T09:11:46.942Z,65.60
2019-02-26T09:14:16.706Z,64.20
2019-02-26T09:16:43.493Z,64.00
2019-02-26T09:19:11.772Z,62.70
2019-02-26T09:21:42.536Z,60.50
2019-02-26T09:24:08.336Z,60.00
2019-02-26T09:26:36.614Z,59.40
2019-02-26T09:29:04.900Z,56.80
2019-02-26T09:31:33.167Z,54.60
2019-02-26T09:34:01.536Z,55.40
2019-02-26T09:36:29.915Z,56.60
2019-02-26T09:38:58.236Z,55.00
2019-02-26T09:41:26.567Z,54.40
2019-02-26T09:43:54.855Z,54.70
2019-02-26T09:46:23.138Z,53.90
2019-02-26T09:48:51.391Z,52.50
2019-02-26T09:51:19.683Z,53.30
2019-02-26T09:53:50.068Z,53.60
2019-02-26T09:56:16.241Z,53.10
2019-02-26T09:58:46.502Z,52.80
2019-02-26T10:01:13.534Z,52.20
2019-02-26T10:03:41.464Z,50.10
2019-02-26T10:06:11.328Z,50.80
2019-02-26T10:08:37.823Z,50.70
2019-02-26T10:11:06.212Z,48.40
2019-02-26T10:13:34.440Z,47.50
2019-02-26T10:16:04.477Z,48.50
2019-02-26T10:18:32.941Z,49.60
2019-02-26T10:20:59.775Z,48.30
2019-02-26T10:23:29.057Z,47.50
2019-02-26T10:25:57.846Z,47.30
2019-02-26T10:28:24.629Z,45.80
2019-02-26T10:30:55.082Z,45.00
2019-02-26T10:33:21.299Z,44.50
2019-02-26T10:35:49.941Z,45.00
2019-02-26T10:38:17.839Z,44.90
2019-02-26T10:40:53.500Z,45.50
2019-02-26T10:43:14.412Z,45.30
2019-02-26T10:45:44.778Z,46.00
2019-02-26T10:48:13.299Z,45.80
2019-02-26T10:50:42.599Z,45.50
2019-02-26T10:53:11.551Z,45.70
2019-02-26T10:55:39.324Z,44.10
2019-02-26T10:58:09.979Z,44.30
2019-02-26T11:00:35.353Z,43.60
2019-02-26T11:03:01.708Z,44.00
2019-02-26T11:05:29.988Z,43.10
2019-02-26T11:08:01.420Z,42.50
2019-02-26T11:10:26.578Z,42.50
2019-02-26T11:12:58.655Z,41.00
2019-02-26T11:15:26.229Z,41.00
2019-02-26T11:17:53.592Z,41.50
2019-02-26T11:20:21.949Z,41.10
2019-02-26T11:22:49.758Z,41.60
2019-02-26T11:25:18.462Z,40.80
2019-02-26T11:27:45.901Z,40.00
2019-02-26T11:30:21.110Z,39.80
2019-02-26T11:32:46.668Z,39.30
2019-02-26T11:35:17.037Z,38.70
2019-02-26T11:37:45.399Z,37.90
2019-02-26T11:40:14.122Z,38.10
2019-02-26T11:42:44.390Z,39.70
2019-02-26T11:45:12.606Z,38.80
2019-02-26T11:47:39.547Z,39.20
2019-02-26T11:50:09.250Z,38.80
2019-02-26T11:52:36.391Z,39.60
2019-02-26T11:55:06.119Z,35.50
2019-02-26T11:57:34.864Z,37.10
2019-02-26T12:00:01.859Z,37.80
2019-02-26T12:02:33.785Z,37.80
2019-02-26T12:04:59.906Z,37.90
2019-02-26T12:07:27.344Z,36.30
2019-02-26T12:09:55.556Z,37.30
2019-02-26T12:12:25.734Z,36.20
2019-02-26T12:14:51.931Z,36.30
2019-02-26T12:17:20.202Z,35.80
2019-02-26T12:19:49.114Z,37.00
2019-02-26T12:22:18.063Z,36.90
2019-02-26T12:24:45.297Z,36.70
2019-02-26T12:27:18.026Z,37.00
2019-02-26T12:29:44.920Z,35.60
2019-02-26T12:32:10.330Z,36.20
2019-02-26T12:34:41.065Z,36.80
2019-02-26T12:37:09.826Z,37.20
2019-02-26T12:39:35.192Z,37.60
2019-02-26T12:42:03.480Z,37.60
2019-02-26T12:44:32.905Z,35.90
2019-02-26T12:47:00.822Z,37.20
2019-02-26T12:49:29.599Z,37.20
2019-02-26T12:51:59.678Z,37.30
2019-02-26T12:54:26.868Z,37.80
2019-02-26T12:56:55.018Z,38.20
2019-02-26T12:59:26.143Z,40.50
2019-02-26T13:01:54.403Z,38.80
2019-02-26T13:04:24.904Z,37.80
2019-02-26T13:06:51.962Z,37.30
2019-02-26T13:09:19.328Z,36.30
2019-02-26T13:14:16.051Z,34.00
2019-02-26T13:16:46.320Z,33.80
2019-02-26T13:19:13.127Z,34.30
2019-02-26T13:21:43.003Z,33.60
2019-02-26T13:24:14.405Z,34.30
2019-02-26T13:26:39.082Z,35.10
2019-02-26T13:29:06.247Z,35.30
2019-02-26T13:31:41.723Z,35.50
2019-02-26T13:34:03.014Z,34.80
2019-02-26T13:36:35.705Z,35.50
2019-02-26T13:38:59.522Z,35.50
2019-02-26T13:41:30.268Z,34.90
2019-02-26T13:43:56.339Z,35.80
2019-02-26T13:46:25.416Z,36.50
2019-02-26T13:48:54.472Z,36.80
2019-02-26T13:51:22.863Z,36.70
2019-02-26T13:53:51.158Z,37.60
2019-02-26T13:56:19.573Z,38.40
2019-02-26T13:58:47.849Z,38.60
2019-02-26T14:01:16.160Z,37.90
2019-02-26T14:03:44.450Z,37.40
2019-02-26T14:06:12.813Z,38.00
2019-02-26T14:08:41.099Z,38.90
2019-02-26T14:11:10.995Z,39.00
2019-02-26T14:13:39.277Z,38.90
2019-02-26T14:16:07.630Z,38.50
2019-02-26T14:18:35.874Z,38.50
2019-02-26T14:21:04.955Z,36.80
2019-02-26T14:23:35.118Z,37.50
2019-02-26T14:26:02.282Z,37.40
2019-02-26T14:28:30.625Z,37.80
2019-02-26T14:30:58.875Z,38.30
2019-02-26T14:33:27.921Z,37.30
2019-02-26T14:35:57.197Z,36.60
2019-02-26T14:38:25.507Z,37.20
2019-02-26T14:40:53.811Z,37.00
2019-02-26T14:43:22.059Z,37.50
2019-02-26T14:45:50.345Z,37.10
2019-02-26T14:48:18.715Z,37.40
2019-02-26T14:50:47.016Z,37.40
2019-02-26T14:53:15.278Z,37.60
2019-02-26T14:55:43.645Z,37.00
2019-02-26T14:58:11.918Z,36.50
2019-02-26T15:00:40.196Z,35.90
2019-02-26T15:03:08.474Z,36.20
2019-02-26T15:05:36.787Z,35.90
2019-02-26T15:08:05.119Z,35.10
2019-02-26T15:10:33.395Z,35.60
2019-02-26T15:13:01.703Z,35.50
2019-02-26T15:15:31.474Z,35.30
2019-02-26T15:17:59.774Z,35.30
2019-02-26T15:20:28.051Z,34.80
2019-02-26T15:22:56.431Z,34.90
2019-02-26T15:25:24.679Z,34.70
2019-02-26T15:27:52.977Z,35.90
2019-02-26T15:30:21.326Z,35.70
2019-02-26T15:32:49.615Z,35.50
2019-02-26T15:35:17.902Z,36.10
2019-02-26T15:37:46.273Z,35.90
2019-02-26T15:40:15.363Z,36.80
2019-02-26T15:42:43.730Z,36.50
2019-02-26T15:45:13.407Z,37.00
2019-02-26T15:47:41.737Z,36.70
2019-02-26T15:50:10.094Z,37.20
2019-02-26T15:52:38.384Z,37.50
2019-02-26T15:55:06.665Z,38.20
2019-02-26T15:57:34.918Z,38.10
2019-02-26T16:00:06.306Z,38.80
2019-02-26T16:02:31.487Z,38.60
2019-02-26T16:04:59.763Z,42.70
2019-02-26T16:07:28.118Z,42.10
2019-02-26T16:09:56.390Z,37.90
2019-02-26T16:12:24.787Z,38.30
2019-02-26T16:14:53.031Z,39.10
2019-02-26T16:17:21.336Z,39.90
2019-02-26T16:19:49.706Z,40.60
2019-02-26T16:22:18.031Z,41.20
2019-02-26T16:24:47.087Z,42.40
2019-02-26T16:27:15.559Z,42.40
2019-02-26T16:29:43.859Z,42.80
2019-02-26T16:32:12.163Z,43.30
2019-02-26T16:34:40.456Z,43.40
2019-02-26T16:37:08.754Z,43.70
2019-02-26T16:39:37.023Z,44.10
2019-02-26T16:42:05.344Z,44.40
2019-02-26T16:44:33.616Z,44.50
2019-02-26T16:47:02.351Z,44.80
2019-02-26T16:49:30.654Z,45.00
2019-02-26T16:52:00.862Z,45.20
2019-02-26T16:54:27.296Z,45.50
2019-02-26T16:56:55.571Z,45.90
2019-02-26T16:59:23.954Z,46.50
2019-02-26T17:01:52.609Z,47.10
2019-02-26T17:04:20.691Z,47.60
2019-02-26T17:06:48.991Z,48.10
2019-02-26T17:09:19.033Z,48.30
2019-02-26T17:11:47.088Z,48.20
2019-02-26T17:14:17.359Z,48.20
2019-02-26T17:16:43.226Z,49.20
2019-02-26T17:19:15.304Z,49.50
2019-02-26T17:21:40.587Z,50.00
2019-02-26T17:24:08.911Z,50.00
2019-02-26T17:26:37.240Z,50.30
2019-02-26T17:29:05.551Z,50.90
2019-02-26T17:31:34.627Z,51.50
2019-02-26T17:34:02.991Z,51.50
2019-02-26T17:36:32.603Z,52.00
2019-02-26T17:38:59.751Z,52.40
2019-02-26T17:41:28.062Z,52.40
2019-02-26T17:43:59.499Z,52.80
2019-02-26T17:46:25.595Z,52.80
2019-02-26T17:48:53.906Z,52.90
2019-02-26T17:51:23.693Z,53.30
2019-02-26T17:53:51.967Z,53.30
2019-02-26T17:56:20.340Z,53.30
2019-02-26T17:58:49.542Z,53.30
2019-02-26T18:01:17.726Z,53.40
2019-02-26T18:03:46.789Z,53.60
2019-02-26T18:06:15.099Z,53.60
2019-02-26T18:08:44.274Z,53.90
2019-02-26T18:11:12.642Z,53.80
2019-02-26T18:13:40.938Z,54.40
2019-02-26T18:16:10.734Z,54.50
2019-02-26T18:18:39.107Z,54.40
2019-02-26T18:21:07.722Z,54.20
2019-02-26T18:23:37.754Z,53.90
2019-02-26T18:26:04.807Z,53.90
2019-02-26T18:28:33.069Z,54.00
2019-02-26T18:31:02.142Z,54.00
2019-02-26T18:33:30.816Z,54.00
2019-02-26T18:35:59.389Z,54.00
2019-02-26T18:38:27.375Z,54.30
2019-02-26T18:40:55.682Z,54.40
2019-02-26T18:43:24.771Z,54.40
2019-02-26T18:45:53.826Z,54.60
2019-02-26T18:48:22.301Z,54.60
2019-02-26T18:50:50.779Z,54.90
2019-02-26T18:53:19.150Z,55.50
2019-02-26T18:55:47.455Z,56.60
2019-02-26T18:58:16.478Z,55.80
2019-02-26T19:00:44.117Z,55.70
2019-02-26T19:03:12.462Z,56.50
2019-02-26T19:05:40.767Z,56.80
2019-02-26T19:08:09.048Z,57.30
2019-02-26T19:10:37.347Z,57.40
2019-02-26T19:13:05.631Z,57.70
2019-02-26T19:15:33.926Z,57.90
2019-02-26T19:18:03.263Z,57.80
2019-02-26T19:20:31.204Z,58.10
2019-02-26T19:22:59.617Z,57.80
2019-02-26T19:25:27.784Z,57.90
2019-02-26T19:27:56.150Z,58.00
2019-02-26T19:30:24.432Z,57.60
2019-02-26T19:32:52.848Z,58.00
2019-02-26T19:35:21.167Z,58.20
2019-02-26T19:37:50.176Z,59.70
2019-02-26T19:40:19.205Z,59.20
2019-02-26T19:42:47.488Z,58.90
2019-02-26T19:45:27.546Z,58.90
2019-02-26T19:47:56.547Z,58.90
2019-02-26T19:50:24.129Z,59.50
2019-02-26T19:52:57.035Z,60.00
2019-02-26T19:55:23.680Z,60.40
2019-02-26T19:57:51.951Z,59.20
2019-02-26T20:00:20.531Z,59.40
2019-02-26T20:02:49.381Z,60.20
2019-02-26T20:05:17.976Z,60.20
2019-02-26T20:07:46.291Z,60.60
2019-02-26T20:10:15.771Z,61.20
2019-02-26T20:12:43.636Z,61.00
2019-02-26T20:15:13.330Z,60.10
2019-02-26T20:17:40.965Z,61.00
2019-02-26T20:20:11.899Z,60.30
2019-02-26T20:22:40.388Z,60.50
2019-02-26T20:25:09.509Z,60.10
2019-02-26T20:27:37.792Z,61.40
2019-02-26T20:30:09.625Z,60.80
2019-02-26T20:32:36.298Z,61.20
2019-02-26T20:35:04.706Z,61.40
2019-02-26T20:37:33.034Z,61.20
2019-02-26T20:40:01.319Z,61.10
2019-02-26T20:42:29.615Z,61.40
2019-02-26T20:44:59.118Z,62.50
2019-02-26T20:47:31.181Z,62.40
2019-02-26T20:50:01.320Z,65.50
2019-02-26T20:52:32.630Z,65.10
2019-02-26T20:54:58.738Z,65.10
2019-02-26T20:57:27.023Z,63.90
2019-02-26T20:59:55.337Z,63.40
2019-02-26T21:02:24.497Z,65.00
2019-02-26T21:04:52.871Z,65.00
2019-02-26T21:07:24.173Z,64.80
2019-02-26T21:09:49.575Z,66.00
2019-02-26T21:12:17.899Z,67.00
2019-02-26T21:14:46.180Z,66.80
2019-02-26T21:17:14.559Z,66.10
2019-02-26T21:19:42.850Z,66.60
2019-02-26T21:22:11.211Z,67.90
2019-02-26T21:24:39.599Z,68.80
2019-02-26T21:27:08.345Z,68.30
2019-02-26T21:29:38.669Z,67.80
2019-02-26T21:32:05.032Z,68.40
2019-02-26T21:34:33.340Z,68.30
2019-02-26T21:37:02.390Z,69.70
2019-02-26T21:39:30.781Z,69.60
2019-02-26T21:41:59.072Z,69.10
2019-02-26T21:44:27.423Z,69.40
2019-02-26T21:46:56.089Z,69.80
2019-02-26T21:49:24.079Z,69.60
2019-02-26T21:51:52.416Z,69.40
2019-02-26T21:54:24.564Z,69.80
2019-02-26T21:56:49.515Z,69.80
2019-02-26T21:59:17.276Z,70.10
2019-02-26T22:01:46.099Z,70.90
2019-02-26T22:04:14.055Z,71.80
2019-02-26T22:06:44.416Z,72.60
2019-02-26T22:09:10.699Z,73.00
2019-02-26T22:11:38.970Z,73.20
2019-02-26T22:14:07.334Z,73.10
2019-02-26T22:16:35.646Z,72.30
2019-02-26T22:19:04.809Z,72.20
2019-02-26T22:21:32.997Z,72.20
2019-02-26T22:24:01.259Z,71.80
2019-02-26T22:26:29.544Z,72.10
2019-02-26T22:28:57.927Z,71.80
2019-02-26T22:31:28.697Z,73.50
2019-02-26T22:33:54.490Z,74.30
2019-02-26T22:36:22.778Z,76.00
2019-02-26T22:38:51.060Z,76.90
2019-02-26T22:41:20.145Z,78.40
2019-02-26T22:43:49.207Z,78.40
2019-02-26T22:46:17.458Z,78.40
2019-02-26T22:48:46.931Z,78.40
2019-02-26T22:51:14.039Z,79.70
2019-02-26T22:53:42.345Z,80.20
2019-02-26T22:56:11.409Z,78.10
2019-02-26T22:58:39.695Z,78.10
2019-02-26T23:01:10.923Z,78.60
2019-02-26T23:03:39.207Z,78.30
2019-02-26T23:06:07.507Z,78.40
2019-02-26T23:08:36.555Z,80.30
2019-02-26T23:11:04.824Z,80.30
2019-02-26T23:13:33.074Z,82.50
2019-02-26T23:16:01.373Z,81.10
2019-02-26T23:18:31.124Z,79.40
2019-02-26T23:20:57.947Z,78.90
2019-02-26T23:23:26.238Z,78.90
2019-02-26T23:25:54.530Z,79.80
2019-02-26T23:28:22.828Z,80.40
2019-02-26T23:30:51.127Z,81.20
2019-02-26T23:33:19.414Z,81.30
2019-02-26T23:35:47.800Z,80.60
2019-02-26T23:38:16.103Z,82.20
2019-02-26T23:40:45.165Z,79.90
2019-02-26T23:43:13.455Z,80.00
2019-02-26T23:45:42.549Z,78.30
2019-02-26T23:48:10.850Z,78.30
2019-02-26T23:50:39.931Z,78.30
2019-02-26T23:53:08.997Z,78.30
2019-02-26T23:55:37.292Z,80.40
2019-02-26T23:58:05.578Z,82.60
